Time;durP1;ratioP1;P1;durP2;ratioP2;P2;SDS_P1;SDS_P2;PMS_P1;PMS_P2;Temp;Humidity;BMP_temperature;BMP_pressure;BME280_temperature;BME280_humidity;BME280_pressure;Samples;Min_cycle;Max_cycle;Signal;HPM_P1;HPM_P2
2023/08/06 00:01:21;;;;;;;5.95;2.05;;;;;;;11.57;76.87;99910.50;4974129;28;20050;-52
2023/08/06 00:03:48;;;;;;;8.38;2.47;;;;;;;11.55;77.72;99920.00;4970827;28;20042;-52
2023/08/06 00:06:14;;;;;;;4.47;1.55;;;;;;;11.53;77.72;99921.78;4975284;28;20066;-54
2023/08/06 00:08:41;;;;;;;4.57;1.63;;;;;;;11.49;77.50;99921.81;4976808;28;20414;-51
2023/08/06 00:11:08;;;;;;;4.68;1.88;;;;;;;11.49;77.85;99921.81;4976546;28;20057;-51
2023/08/06 00:13:34;;;;;;;4.88;1.75;;;;;;;11.45;77.24;99920.94;4975475;28;20042;-51
2023/08/06 00:16:17;;;;;;;9.00;2.28;;;;;;;11.39;77.05;99921.03;4976155;28;20047;-50
2023/08/06 00:18:43;;;;;;;4.93;1.58;;;;;;;11.40;76.76;99918.41;4973849;28;20039;-52
2023/08/06 00:21:12;;;;;;;4.13;1.60;;;;;;;11.36;76.56;99926.22;4982078;28;20073;-54
2023/08/06 00:23:41;;;;;;;5.18;1.70;;;;;;;11.36;76.95;99926.22;4999014;28;20665;-50
2023/08/06 00:26:09;;;;;;;3.22;1.38;;;;;;;11.33;77.70;99929.72;5004711;28;20050;-54
2023/08/06 00:28:36;;;;;;;6.85;2.00;;;;;;;11.30;76.79;99933.19;4996148;28;20066;-52
2023/08/06 00:31:04;;;;;;;5.40;1.75;;;;;;;11.28;77.77;99928.91;4997018;28;20050;-53
2023/08/06 00:33:32;;;;;;;5.75;2.78;;;;;;;11.25;77.26;99923.72;4999305;28;20041;-53
2023/08/06 00:36:00;;;;;;;3.00;1.27;;;;;;;11.22;76.92;99924.63;5001763;28;20678;-49
2023/08/06 00:38:28;;;;;;;6.57;1.92;;;;;;;11.19;76.78;99924.63;4991467;28;20054;-50
2023/08/06 00:40:55;;;;;;;3.88;1.55;;;;;;;11.18;77.76;99922.91;4993692;28;20108;-52
2023/08/06 00:43:23;;;;;;;4.35;1.67;;;;;;;11.14;77.39;99927.25;4973270;28;20051;-51
2023/08/06 00:45:51;;;;;;;4.97;1.73;;;;;;;11.14;77.73;99926.38;4977021;28;20058;-51
2023/08/06 00:48:21;;;;;;;7.20;1.70;;;;;;;11.11;77.02;99922.06;4982715;28;20816;-54
2023/08/06 00:50:49;;;;;;;5.68;1.90;;;;;;;11.09;77.54;99933.34;4992138;28;20077;-49
2023/08/06 00:53:18;;;;;;;5.25;1.98;;;;;;;11.07;77.60;99932.50;4987810;28;20108;-50
2023/08/06 00:55:47;;;;;;;5.38;1.65;;;;;;;11.05;77.96;99933.34;4995259;28;20060;-50
2023/08/06 00:58:17;;;;;;;6.47;1.30;;;;;;;11.05;76.62;99930.75;4994416;28;20558;-51
2023/08/06 01:00:46;;;;;;;5.20;1.63;;;;;;;11.00;77.86;99929.94;4995754;28;20049;-51
2023/08/06 01:03:13;;;;;;;4.43;1.25;;;;;;;11.00;77.24;99924.75;5001288;28;20069;-53
2023/08/06 01:05:40;;;;;;;8.82;1.42;;;;;;;10.99;77.86;99933.41;5003599;28;20466;-52
2023/08/06 01:11:23;;;;;;;6.72;1.20;;;;;;;10.92;77.24;99931.72;5041871;28;20790;-51
2023/08/06 01:13:59;;;;;;;4.97;2.88;;;;;;;10.93;77.13;99933.44;5034736;28;20049;-48
2023/08/06 01:16:26;;;;;;;3.90;2.60;;;;;;;10.92;78.28;99936.91;5041796;28;20045;-50
2023/08/06 01:18:53;;;;;;;6.05;3.45;;;;;;;10.90;76.93;99934.31;5040186;28;20048;-53
2023/08/06 01:21:19;;;;;;;5.57;2.97;;;;;;;10.91;78.04;99937.78;5042305;28;20575;-50
2023/08/06 01:23:47;;;;;;;9.25;2.60;;;;;;;10.90;77.94;99943.81;5042503;28;20053;-50
2023/08/06 01:26:37;;;;;;;4.32;2.90;;;;;;;10.82;77.92;99936.09;5036254;28;20049;-49
2023/08/06 01:29:18;;;;;;;5.30;3.15;;;;;;;10.83;77.35;99944.72;5040749;28;20037;-52
2023/08/06 01:31:48;;;;;;;5.47;2.22;;;;;;;10.83;77.55;99945.59;5041416;28;20049;-49
2023/08/06 01:34:20;;;;;;;5.28;2.92;;;;;;;10.84;77.78;99949.03;5040727;28;20437;-50
2023/08/06 01:36:47;;;;;;;6.68;3.25;;;;;;;10.80;78.27;99954.25;5041018;28;20059;-52
2023/08/06 01:39:14;;;;;;;5.53;3.30;;;;;;;10.80;77.57;99950.78;5041251;28;20056;-49
2023/08/06 01:41:41;;;;;;;7.25;3.30;;;;;;;10.82;77.19;99963.72;5038467;28;20045;-48
2023/08/06 01:44:07;;;;;;;4.60;3.17;;;;;;;10.80;77.95;99961.13;5033068;28;20053;-49
2023/08/06 01:46:34;;;;;;;8.60;3.90;;;;;;;10.80;77.57;99968.91;5041710;28;20056;-53
2023/08/06 01:49:01;;;;;;;7.22;3.47;;;;;;;10.79;78.03;99968.06;5039347;28;20044;-50
2023/08/06 01:51:27;;;;;;;7.10;4.07;;;;;;;10.78;78.21;99973.25;5040670;28;20041;-49
2023/08/06 01:53:54;;;;;;;5.85;3.10;;;;;;;10.75;77.25;99979.31;5037315;28;20045;-51
2023/08/06 01:56:21;;;;;;;6.32;3.75;;;;;;;10.75;77.46;99984.50;5035663;28;20498;-48
2023/08/06 01:58:47;;;;;;;5.72;3.42;;;;;;;10.73;78.10;99983.63;5021267;28;20128;-48
2023/08/06 02:01:14;;;;;;;6.13;2.88;;;;;;;10.74;78.28;99985.34;5037084;28;20045;-53
2023/08/06 02:03:41;;;;;;;7.38;1.77;;;;;;;10.74;77.75;99989.69;5036894;28;20477;-51
2023/08/06 02:06:07;;;;;;;6.78;2.83;;;;;;;10.73;77.53;99987.94;5012956;28;20053;-54
2023/08/06 02:08:34;;;;;;;8.73;3.30;;;;;;;10.71;78.26;99985.34;5020447;28;20058;-52
2023/08/06 02:11:02;;;;;;;5.47;3.92;;;;;;;10.71;77.51;99990.53;5018250;28;20467;-50
2023/08/06 02:13:29;;;;;;;7.05;3.17;;;;;;;10.68;78.10;99990.56;5022020;28;20077;-52
2023/08/06 02:15:56;;;;;;;8.25;3.42;;;;;;;10.69;78.48;99992.28;5022412;28;20085;-53
2023/08/06 02:18:22;;;;;;;7.68;2.95;;;;;;;10.68;78.26;99990.56;5021176;28;20049;-49
2023/08/06 02:20:58;;;;;;;6.95;3.30;;;;;;;10.64;77.69;99989.69;5017451;28;20049;-51
2023/08/06 02:23:26;;;;;;;7.80;1.63;;;;;;;10.65;77.53;99991.44;5008604;28;20953;-50
2023/08/06 02:26:08;;;;;;;6.97;2.45;;;;;;;10.61;77.64;99984.53;5021136;28;20053;-51
2023/08/06 02:28:34;;;;;;;5.13;2.60;;;;;;;10.64;78.16;99988.84;5005606;28;20651;-50
2023/08/06 02:31:01;;;;;;;4.90;2.53;;;;;;;10.63;77.27;99988.00;5006689;28;20049;-51
2023/08/06 02:33:28;;;;;;;5.57;2.78;;;;;;;10.62;77.81;99985.41;5006249;28;20132;-50
2023/08/06 02:36:01;;;;;;;4.43;1.63;;;;;;;10.60;78.12;99979.38;5009677;28;20633;-51
2023/08/06 02:38:27;;;;;;;3.70;2.47;;;;;;;10.59;77.81;99980.22;5001716;28;20042;-53
2023/08/06 02:40:54;;;;;;;9.27;3.05;;;;;;;10.60;77.65;99997.50;5007016;28;20096;-51
2023/08/06 02:43:21;;;;;;;4.40;2.40;;;;;;;10.59;78.04;99985.41;5005347;28;20057;-52
2023/08/06 02:45:47;;;;;;;5.00;2.58;;;;;;;10.58;77.42;99994.06;5005408;28;20050;-54
2023/08/06 02:48:14;;;;;;;3.97;2.75;;;;;;;10.53;78.10;99991.47;5009373;28;20042;-51
2023/08/06 02:50:41;;;;;;;8.82;3.53;;;;;;;10.51;78.10;99999.25;5006237;28;20046;-52
2023/08/06 02:53:08;;;;;;;5.10;2.63;;;;;;;10.48;77.90;99994.09;5007480;28;20420;-51
2023/08/06 02:55:35;;;;;;;7.38;2.80;;;;;;;10.48;77.55;99991.50;5003574;28;20054;-54
2023/08/06 02:58:02;;;;;;;4.65;2.78;;;;;;;10.47;78.35;99988.91;5005746;28;20065;-52
2023/08/06 03:00:29;;;;;;;6.28;2.90;;;;;;;10.44;77.45;99992.34;5010057;28;20054;-50
2023/08/06 03:02:55;;;;;;;4.75;2.63;;;;;;;10.43;78.13;99990.59;5005938;28;20506;-52
2023/08/06 03:05:22;;;;;;;4.32;2.15;;;;;;;10.40;77.89;99993.19;5004024;28;20344;-52
2023/08/06 03:07:48;;;;;;;9.25;2.78;;;;;;;10.40;78.53;99994.06;5007240;28;20093;-54
2023/08/06 03:10:15;;;;;;;7.00;3.83;;;;;;;10.41;78.50;99992.34;5006613;28;20038;-51
2023/08/06 03:12:42;;;;;;;4.28;2.22;;;;;;;10.40;78.42;99995.78;5008028;28;20058;-51
2023/08/06 03:15:09;;;;;;;8.30;1.70;;;;;;;10.41;78.03;99997.53;5006009;28;20621;-48
2023/08/06 03:17:35;;;;;;;7.85;2.97;;;;;;;10.41;78.03;99997.53;5005330;28;20137;-50
2023/08/06 03:20:03;;;;;;;6.65;3.42;;;;;;;10.38;78.29;99988.06;5007399;28;20046;-51
2023/08/06 03:22:29;;;;;;;7.25;2.50;;;;;;;10.39;77.91;99988.91;5007866;28;20103;-48
2023/08/06 03:24:56;;;;;;;7.03;3.33;;;;;;;10.38;78.21;99994.94;5005732;28;20069;-50
2023/08/06 03:27:23;;;;;;;6.88;3.60;;;;;;;10.37;78.01;99995.81;5006170;28;20073;-51
2023/08/06 03:29:50;;;;;;;6.03;3.35;;;;;;;10.37;77.77;99995.81;5003837;28;20046;-50
2023/08/06 03:32:17;;;;;;;7.25;3.13;;;;;;;10.35;78.60;99989.78;5004006;28;20107;-50
2023/08/06 03:34:43;;;;;;;8.18;3.58;;;;;;;10.35;78.29;99994.94;5006350;28;20058;-50
2023/08/06 03:37:10;;;;;;;7.63;3.20;;;;;;;10.35;77.85;99997.53;5009072;28;20054;-51
2023/08/06 03:39:37;;;;;;;7.88;3.28;;;;;;;10.32;78.60;99994.94;5005075;28;20061;-53
2023/08/06 03:42:03;;;;;;;9.85;3.78;;;;;;;10.32;77.60;99998.41;5004225;28;20053;-49
2023/08/06 03:44:30;;;;;;;4.57;3.38;;;;;;;10.31;78.44;100006.19;5005804;28;20061;-50
2023/08/06 03:46:57;;;;;;;6.40;1.95;;;;;;;10.31;78.09;100006.19;5005428;28;20592;-50
2023/08/06 03:49:24;;;;;;;7.10;3.83;;;;;;;10.26;78.54;100012.22;5005767;28;20167;-54
2023/08/06 03:51:50;;;;;;;7.90;4.60;;;;;;;10.25;77.83;100002.75;5006088;28;20049;-51
2023/08/06 03:54:17;;;;;;;5.63;3.65;;;;;;;10.25;78.07;100002.75;5009173;28;20049;-50
2023/08/06 03:56:44;;;;;;;5.30;2.90;;;;;;;10.21;78.84;100005.34;5001789;28;20049;-54
2023/08/06 03:59:11;;;;;;;8.93;4.18;;;;;;;10.22;77.96;100018.28;5005642;28;20050;-50
2023/08/06 04:01:38;;;;;;;8.05;2.97;;;;;;;10.20;77.91;100011.38;5004643;28;20046;-49
2023/08/06 04:04:04;;;;;;;6.13;3.67;;;;;;;10.21;78.18;100016.56;5006933;28;20438;-52
2023/08/06 04:06:31;;;;;;;8.90;3.35;;;;;;;10.17;79.00;100020.03;4997971;28;20060;-53
2023/08/06 04:08:57;;;;;;;5.57;3.40;;;;;;;10.18;77.92;100024.31;5011445;28;20077;-51
2023/08/06 04:11:24;;;;;;;7.63;3.22;;;;;;;10.15;78.85;100024.31;5005325;28;20049;-52
2023/08/06 04:13:54;;;;;;;7.18;3.72;;;;;;;10.15;78.54;100021.75;5004875;28;20057;-49
2023/08/06 04:16:21;;;;;;;7.00;3.50;;;;;;;10.15;78.95;100022.63;5004387;28;20068;-49
2023/08/06 04:18:48;;;;;;;7.13;3.22;;;;;;;10.14;78.64;100025.19;5005691;28;20045;-51
2023/08/06 04:21:15;;;;;;;5.90;3.75;;;;;;;10.14;78.77;100020.03;5008957;28;20052;-50
2023/08/06 04:23:41;;;;;;;7.55;3.10;;;;;;;10.13;78.63;100024.31;5006470;28;20068;-51
2023/08/06 04:26:08;;;;;;;6.38;3.97;;;;;;;10.15;78.86;100021.75;5005520;28;20046;-50
2023/08/06 04:28:35;;;;;;;8.25;3.80;;;;;;;10.16;78.21;100028.63;5002512;28;20056;-53
2023/08/06 04:31:01;;;;;;;6.55;3.67;;;;;;;10.15;78.53;100032.09;5006274;28;20042;-50
2023/08/06 04:33:28;;;;;;;7.28;3.38;;;;;;;10.13;78.20;100028.63;5005613;28;20100;-49
2023/08/06 04:35:55;;;;;;;6.78;3.72;;;;;;;10.15;79.16;100034.69;5003552;28;20069;-51
2023/08/06 04:38:25;;;;;;;7.07;3.67;;;;;;;10.16;78.98;100036.41;5005031;28;20046;-52
2023/08/06 04:40:52;;;;;;;8.63;3.72;;;;;;;10.12;78.72;100032.09;5005037;28;20046;-49
2023/08/06 04:43:19;;;;;;;8.82;3.97;;;;;;;10.13;78.99;100038.97;5001037;28;20046;-48
2023/08/06 04:45:47;;;;;;;8.05;3.08;;;;;;;10.16;78.92;100041.56;5005995;28;20048;-50
2023/08/06 04:48:14;;;;;;;5.40;2.92;;;;;;;10.15;78.39;100047.63;5005557;28;20049;-50
2023/08/06 04:50:45;;;;;;;7.82;3.13;;;;;;;10.14;77.72;100040.72;5005586;28;20510;-50
2023/08/06 04:53:12;;;;;;;7.50;3.70;;;;;;;10.13;79.11;100046.75;5006315;28;20406;-48
2023/08/06 04:55:39;;;;;;;6.70;2.15;;;;;;;10.11;78.62;100045.91;5005764;28;20446;-52
2023/08/06 04:58:06;;;;;;;8.13;3.05;;;;;;;10.12;79.38;100060.56;5003641;28;20050;-50
2023/08/06 05:00:33;;;;;;;10.77;4.05;;;;;;;10.14;78.42;100051.09;5005550;28;20041;-50
2023/08/06 05:03:01;;;;;;;9.50;3.42;;;;;;;10.12;79.62;100056.25;5003619;28;20046;-52
2023/08/06 05:05:28;;;;;;;8.52;4.00;;;;;;;10.16;79.46;100062.28;4999247;28;20057;-50
2023/08/06 05:07:56;;;;;;;8.15;3.83;;;;;;;10.19;79.36;100064.00;5006071;28;20049;-53
2023/08/06 05:10:26;;;;;;;11.55;4.18;;;;;;;10.21;79.55;100073.50;5002008;28;20564;-51
2023/08/06 05:12:53;;;;;;;7.05;3.22;;;;;;;10.21;79.53;100063.16;5005124;28;20054;-51
2023/08/06 05:15:20;;;;;;;5.50;3.33;;;;;;;10.22;79.37;100067.47;5020214;28;20052;-52
2023/08/06 05:17:46;;;;;;;7.85;2.65;;;;;;;10.25;79.00;100069.19;5000124;28;20418;-53
2023/08/06 05:20:13;;;;;;;6.72;3.63;;;;;;;10.28;79.05;100074.38;5002814;28;20068;-55
2023/08/06 05:22:45;;;;;;;8.05;3.83;;;;;;;10.32;79.04;100077.78;5006396;28;20049;-53
2023/08/06 05:25:13;;;;;;;5.18;3.42;;;;;;;10.39;79.81;100079.50;5003446;28;20053;-51
2023/08/06 05:27:40;;;;;;;6.35;3.72;;;;;;;10.39;80.09;100076.94;5005211;28;20129;-49
2023/08/06 05:30:08;;;;;;;10.05;3.78;;;;;;;10.54;79.55;100082.09;5005479;28;20041;-53
2023/08/06 05:32:34;;;;;;;9.25;3.80;;;;;;;10.63;79.83;100080.34;5006797;28;20057;-49
2023/08/06 05:35:01;;;;;;;7.00;4.15;;;;;;;10.72;80.12;100090.72;5005518;28;20406;-53
2023/08/06 05:37:28;;;;;;;7.53;4.13;;;;;;;10.80;79.55;100081.19;5008818;28;20141;-51
2023/08/06 05:39:54;;;;;;;6.43;4.00;;;;;;;10.91;80.51;100095.84;4997267;28;20388;-50
2023/08/06 05:42:21;;;;;;;9.18;2.95;;;;;;;10.94;80.26;100093.22;5006642;28;20060;-50
2023/08/06 05:44:48;;;;;;;6.45;3.90;;;;;;;11.05;79.75;100098.38;5001942;28;20057;-49
2023/08/06 05:47:14;;;;;;;7.65;4.57;;;;;;;11.21;79.47;100091.38;5004105;28;20079;-52
2023/08/06 05:49:41;;;;;;;7.40;3.97;;;;;;;11.32;80.22;100101.72;5006511;28;20057;-51
2023/08/06 05:52:08;;;;;;;8.00;3.97;;;;;;;11.41;80.66;100105.97;5004711;28;20048;-51
2023/08/06 05:54:35;;;;;;;6.78;4.28;;;;;;;11.55;80.60;100103.34;5003151;28;20104;-53
2023/08/06 05:57:01;;;;;;;8.18;4.28;;;;;;;11.65;78.98;100109.31;5004510;28;20045;-50
2023/08/06 05:59:28;;;;;;;8.00;2.22;;;;;;;11.78;79.14;100108.38;5006566;28;20533;-53
2023/08/06 06:01:55;;;;;;;8.90;3.85;;;;;;;11.94;79.01;100110.84;5008250;28;20061;-53
2023/08/06 06:04:21;;;;;;;7.72;4.25;;;;;;;12.04;80.24;100117.69;5005249;28;20054;-50
2023/08/06 06:06:48;;;;;;;6.38;3.50;;;;;;;12.16;78.92;100126.31;5003826;28;20050;-53
2023/08/06 06:09:15;;;;;;;11.55;4.35;;;;;;;12.25;78.56;100126.22;5001594;28;20056;-52
2023/08/06 06:11:41;;;;;;;7.13;3.90;;;;;;;12.23;77.77;100133.16;5002358;28;20042;-50
2023/08/06 06:14:08;;;;;;;6.90;2.15;;;;;;;12.19;78.63;100128.84;5007044;28;20465;-53
2023/08/06 06:16:35;;;;;;;7.40;3.35;;;;;;;12.13;77.76;100137.53;5003465;28;20057;-55
2023/08/06 06:19:01;;;;;;;7.88;3.78;;;;;;;12.10;77.92;100123.75;5010218;28;20417;-51
2023/08/06 06:21:28;;;;;;;7.32;3.25;;;;;;;12.11;78.69;100123.72;5007045;28;20050;-52
2023/08/06 06:23:56;;;;;;;7.28;3.47;;;;;;;12.16;78.72;100126.31;5007390;28;20550;-52
2023/08/06 06:26:23;;;;;;;6.43;3.72;;;;;;;12.22;77.50;100131.44;5004854;28;20054;-49
2023/08/06 06:28:49;;;;;;;6.90;3.92;;;;;;;12.29;78.48;100133.09;5005971;28;20053;-51
2023/08/06 06:31:16;;;;;;;10.93;2.72;;;;;;;12.39;78.93;100139.06;5000864;28;20442;-50
2023/08/06 06:33:42;;;;;;;7.20;4.03;;;;;;;12.50;78.48;100138.97;5002810;28;20042;-52
2023/08/06 06:36:09;;;;;;;10.50;5.43;;;;;;;12.62;78.41;100134.53;5006991;28;20045;-49
2023/08/06 06:38:36;;;;;;;8.07;4.07;;;;;;;12.78;77.73;100143.91;5011337;28;20057;-49
2023/08/06 06:41:03;;;;;;;10.73;4.25;;;;;;;12.96;77.72;100139.38;5003141;28;20482;-51
2023/08/06 06:43:29;;;;;;;8.07;4.63;;;;;;;13.04;78.12;100149.72;5001771;28;20112;-49
2023/08/06 06:45:58;;;;;;;9.18;3.72;;;;;;;13.13;77.12;100152.19;5005607;28;20494;-49
2023/08/06 06:48:27;;;;;;;9.15;4.28;;;;;;;13.20;77.29;100152.97;5005431;28;20506;-51
2023/08/06 06:50:54;;;;;;;6.05;3.88;;;;;;;13.24;77.66;100150.31;5008090;28;20054;-52
2023/08/06 06:53:26;;;;;;;5.30;3.10;;;;;;;13.34;77.73;100160.63;5008848;28;20053;-50
2023/08/06 06:55:54;;;;;;;9.48;4.63;;;;;;;13.40;76.75;100162.31;5005771;28;20061;-50
2023/08/06 06:58:21;;;;;;;8.02;4.47;;;;;;;13.47;76.56;100161.31;5005301;28;20046;-51
2023/08/06 07:00:48;;;;;;;9.45;4.38;;;;;;;13.56;76.77;100158.66;5003864;28;20050;-48
2023/08/06 07:03:15;;;;;;;9.57;4.85;;;;;;;13.70;76.76;100157.59;5003388;28;20049;-49
2023/08/06 07:05:44;;;;;;;8.90;3.97;;;;;;;13.93;77.08;100167.69;5017227;28;20070;-49
2023/08/06 07:08:11;;;;;;;6.80;3.72;;;;;;;14.13;76.27;100159.56;5010926;28;20053;-49
2023/08/06 07:10:38;;;;;;;8.07;4.75;;;;;;;14.40;76.70;100167.78;5006501;28;20037;-49
2023/08/06 07:13:07;;;;;;;7.60;4.70;;;;;;;14.55;75.66;100168.44;5005762;28;20061;-53
2023/08/06 07:15:34;;;;;;;6.45;3.95;;;;;;;14.61;75.85;100176.16;5002369;28;20550;-52
2023/08/06 07:18:01;;;;;;;6.90;4.28;;;;;;;14.63;75.98;100171.75;5001742;28;20362;-51
2023/08/06 07:20:31;;;;;;;6.18;3.75;;;;;;;14.67;75.55;100176.91;5003684;28;20069;-50
2023/08/06 07:22:59;;;;;;;5.85;3.42;;;;;;;14.66;75.32;100176.06;5005805;28;20107;-50
2023/08/06 07:25:25;;;;;;;6.13;4.68;;;;;;;14.74;75.50;100179.41;5006527;28;20078;-53
2023/08/06 07:27:52;;;;;;;5.70;3.72;;;;;;;14.81;75.47;100174.09;5002708;28;20517;-52
2023/08/06 07:30:19;;;;;;;10.77;4.20;;;;;;;14.90;74.62;100182.59;5004541;28;20056;-50
2023/08/06 07:32:45;;;;;;;8.70;4.32;;;;;;;15.00;74.63;100178.06;5005404;28;20052;-52
2023/08/06 07:35:14;;;;;;;7.68;3.88;;;;;;;15.04;74.01;100184.09;5005429;28;20049;-50
2023/08/06 07:37:41;;;;;;;6.75;3.97;;;;;;;15.07;73.82;100186.66;5004646;28;21909;-53
2023/08/06 07:40:08;;;;;;;5.32;3.53;;;;;;;15.13;73.77;100191.75;5005664;28;20045;-52
2023/08/06 07:42:35;;;;;;;5.10;1.80;;;;;;;15.15;73.72;100194.31;5006909;28;20485;-52
2023/08/06 07:45:02;;;;;;;5.47;3.75;;;;;;;15.21;73.76;100198.56;5006207;28;20108;-50
2023/08/06 07:47:29;;;;;;;5.07;3.53;;;;;;;15.30;73.25;100195.75;4999847;28;20062;-50
2023/08/06 07:49:56;;;;;;;4.80;3.38;;;;;;;15.42;73.10;100192.94;5006949;28;20050;-54
2023/08/06 07:52:22;;;;;;;6.47;4.15;;;;;;;15.57;72.79;100195.25;5006197;28;20842;-52
2023/08/06 07:54:49;;;;;;;5.60;3.70;;;;;;;15.65;72.66;100193.31;5000283;28;20144;-52
2023/08/06 07:57:16;;;;;;;4.72;3.40;;;;;;;15.76;72.73;100206.13;5005157;28;20049;-53
2023/08/06 07:59:43;;;;;;;8.07;3.75;;;;;;;15.81;72.18;100204.31;5004233;28;20072;-52
2023/08/06 08:02:10;;;;;;;6.53;3.33;;;;;;;15.86;71.96;100209.41;5011211;28;20057;-52
2023/08/06 08:04:36;;;;;;;5.05;3.45;;;;;;;15.87;72.33;100214.59;5003253;28;20050;-51
2023/08/06 08:07:03;;;;;;;8.88;4.03;;;;;;;15.87;72.14;100214.59;5003961;28;20061;-53
2023/08/06 08:09:30;;;;;;;5.80;3.50;;;;;;;15.83;71.35;100218.16;5004007;28;20060;-53
2023/08/06 08:11:56;;;;;;;4.57;3.33;;;;;;;15.89;71.95;100218.03;5011018;28;20188;-53
2023/08/06 08:14:26;;;;;;;6.70;3.92;;;;;;;15.96;71.32;100215.31;5001282;28;20042;-53
2023/08/06 08:16:53;;;;;;;7.10;4.13;;;;;;;16.09;71.28;100213.28;5005191;28;20046;-50
2023/08/06 08:19:21;;;;;;;4.30;2.85;;;;;;;16.17;70.99;100214.84;5006660;28;20693;-51
2023/08/06 08:21:47;;;;;;;5.07;3.78;;;;;;;16.27;70.95;100222.44;5006243;28;20042;-52
2023/08/06 08:24:14;;;;;;;9.07;3.60;;;;;;;16.35;70.72;100215.28;5003146;28;20042;-50
2023/08/06 08:26:40;;;;;;;5.25;3.50;;;;;;;16.38;70.64;100209.97;5007596;28;20061;-52
2023/08/06 08:29:07;;;;;;;3.92;3.20;;;;;;;16.38;70.24;100220.44;5005496;28;20049;-52
2023/08/06 08:31:38;;;;;;;5.45;3.65;;;;;;;16.34;69.97;100207.50;5004460;28;20726;-50
2023/08/06 08:34:06;;;;;;;6.05;3.53;;;;;;;16.35;69.99;100215.28;5001190;28;20049;-49
2023/08/06 08:36:32;;;;;;;5.80;3.70;;;;;;;16.37;70.04;100213.50;5008105;28;20074;-51
2023/08/06 08:38:59;;;;;;;6.88;4.18;;;;;;;16.39;69.28;100206.50;5009344;28;20087;-50
2023/08/06 08:41:29;;;;;;;10.63;3.42;;;;;;;16.44;69.55;100211.59;5007036;28;20053;-52
2023/08/06 08:43:58;;;;;;;5.57;3.72;;;;;;;16.48;69.53;100215.00;5009286;28;20045;-53
2023/08/06 08:46:27;;;;;;;4.13;3.08;;;;;;;16.56;69.44;100218.28;5004956;28;20545;-53
2023/08/06 08:48:55;;;;;;;5.20;3.42;;;;;;;16.55;68.23;100222.63;5006122;28;20100;-50
2023/08/06 08:51:23;;;;;;;6.90;3.25;;;;;;;16.60;67.92;100219.03;5007076;28;20048;-50
2023/08/06 08:53:55;;;;;;;9.38;3.60;;;;;;;16.65;68.11;100219.81;5005058;28;20046;-52
2023/08/06 08:56:22;;;;;;;5.18;3.10;;;;;;;16.70;68.81;100231.88;5005991;28;20466;-51
2023/08/06 08:58:48;;;;;;;5.55;3.85;;;;;;;16.78;68.63;100222.94;5004561;28;20049;-50
2023/08/06 09:01:16;;;;;;;5.30;3.25;;;;;;;16.92;67.76;100230.44;5003241;28;20056;-50
2023/08/06 09:03:44;;;;;;;5.00;3.00;;;;;;;17.08;67.91;100230.91;5001373;28;20132;-51
2023/08/06 09:06:12;;;;;;;3.33;2.75;;;;;;;17.21;67.55;100228.84;5006369;28;20051;-51
2023/08/06 09:08:43;;;;;;;5.25;3.58;;;;;;;17.32;67.06;100223.28;5006610;28;20140;-51
2023/08/06 09:11:10;;;;;;;3.88;3.15;;;;;;;17.41;66.92;100228.28;5012315;28;20075;-54
2023/08/06 09:13:38;;;;;;;5.88;2.65;;;;;;;17.46;66.99;100236.84;5000401;28;20045;-49
2023/08/06 09:16:05;;;;;;;3.72;2.72;;;;;;;17.49;66.82;100235.91;5003037;28;20485;-53
2023/08/06 09:18:31;;;;;;;6.10;2.28;;;;;;;17.55;66.73;100238.34;5000365;28;20188;-53
2023/08/06 09:20:58;;;;;;;3.88;2.72;;;;;;;17.57;66.12;100233.06;5001451;28;20047;-53
2023/08/06 09:23:30;;;;;;;6.32;3.47;;;;;;;17.58;65.85;100240.91;5004933;28;20050;-53
2023/08/06 09:25:57;;;;;;;3.92;3.33;;;;;;;17.62;66.03;100240.81;5011846;28;20049;-51
2023/08/06 09:28:24;;;;;;;4.30;3.90;;;;;;;17.59;65.45;100233.88;5004184;28;20050;-54
2023/08/06 09:30:55;;;;;;;4.60;2.90;;;;;;;17.64;64.44;100245.09;5005965;28;20049;-52
2023/08/06 09:33:23;;;;;;;4.60;3.85;;;;;;;17.73;64.83;100242.19;5018968;28;20147;-55
2023/08/06 09:35:50;;;;;;;3.90;3.17;;;;;;;17.89;64.77;100244.34;5006070;28;20046;-53
2023/08/06 09:38:16;;;;;;;3.03;2.38;;;;;;;17.95;63.79;100245.94;5010870;28;20052;-49
2023/08/06 09:40:43;;;;;;;3.30;2.53;;;;;;;18.02;63.56;100241.34;5012418;28;20128;-52
2023/08/06 09:43:11;;;;;;;2.92;2.42;;;;;;;18.09;62.86;100240.28;5005947;28;20270;-52
2023/08/06 09:45:38;;;;;;;4.20;3.20;;;;;;;18.23;62.20;100248.59;5009632;28;20076;-54
2023/08/06 09:48:07;;;;;;;3.00;1.98;;;;;;;18.39;61.89;100248.09;5008713;28;20058;-54
2023/08/06 09:50:38;;;;;;;2.47;2.28;;;;;;;18.55;60.39;100243.22;5011395;28;20057;-54
2023/08/06 09:53:06;;;;;;;6.18;2.70;;;;;;;18.73;60.83;100252.25;5014772;28;20120;-50
2023/08/06 09:55:33;;;;;;;2.33;2.13;;;;;;;18.80;58.83;100246.75;5010122;28;20057;-52
2023/08/06 09:58:01;;;;;;;3.15;2.75;;;;;;;18.95;59.78;100248.88;5006398;28;20045;-55
2023/08/06 10:00:29;;;;;;;3.33;2.53;;;;;;;19.07;58.83;100254.63;5009563;28;20049;-55
2023/08/06 10:02:59;;;;;;;2.25;1.85;;;;;;;19.16;57.42;100251.69;5010975;28;20057;-54
2023/08/06 10:05:27;;;;;;;3.13;2.83;;;;;;;19.34;57.64;100257.19;4990805;28;20045;-52
2023/08/06 10:07:55;;;;;;;4.05;1.98;;;;;;;19.53;57.29;100258.22;5005195;28;20053;-51
2023/08/06 10:10:23;;;;;;;3.38;2.65;;;;;;;19.59;56.52;100256.31;5007171;28;20057;-53
2023/08/06 10:12:54;;;;;;;2.80;2.13;;;;;;;19.59;55.48;100265.03;5008809;28;20049;-52
2023/08/06 10:15:26;;;;;;;3.92;2.22;;;;;;;19.69;56.58;100260.28;5008638;28;20100;-53
2023/08/06 10:17:56;;;;;;;2.85;2.42;;;;;;;19.74;55.66;100255.72;5006597;28;20175;-54
2023/08/06 10:20:24;;;;;;;1.88;1.00;;;;;;;19.83;55.67;100257.16;5020243;28;20457;-52
2023/08/06 10:23:01;;;;;;;2.67;2.35;;;;;;;19.90;55.97;100270.91;5018384;28;20042;-54
2023/08/06 10:25:31;;;;;;;2.65;2.22;;;;;;;19.98;56.06;100268.84;5008220;28;20491;-52
2023/08/06 10:27:58;;;;;;;2.70;2.25;;;;;;;20.12;56.14;100265.69;5003590;28;20041;-54
2023/08/06 10:30:33;;;;;;;3.50;2.55;;;;;;;20.34;55.73;100271.88;5005918;28;20049;-50
2023/08/06 10:33:02;;;;;;;2.75;1.30;;;;;;;20.43;55.40;100268.88;5009680;28;20677;-52
2023/08/06 10:35:49;;;;;;;2.58;2.38;;;;;;;20.39;53.82;100262.03;5006407;28;20054;-50
2023/08/06 10:38:21;;;;;;;3.00;2.60;;;;;;;20.35;54.44;100270.97;5020015;28;20137;-50
2023/08/06 10:41:01;;;;;;;2.88;2.53;;;;;;;20.28;54.91;100268.59;5003746;28;20050;-54
2023/08/06 10:46:10;;;;;;;4.65;1.60;;;;;;;20.10;55.45;100277.19;5035645;27;20428;-54
2023/08/06 10:51:14;;;;;;;3.28;1.52;;;;;;;19.94;56.06;100277.75;5034604;28;20406;-52
2023/08/06 10:53:44;;;;;;;4.85;1.85;;;;;;;19.92;56.42;100274.31;5016756;28;20049;-50
2023/08/06 10:56:17;;;;;;;3.53;1.65;;;;;;;19.91;56.82;100275.25;5016978;28;20053;-52
2023/08/06 10:58:45;;;;;;;2.40;1.33;;;;;;;19.94;57.45;100272.50;5010857;28;20064;-54
2023/08/06 11:01:12;;;;;;;4.13;1.80;;;;;;;20.12;57.31;100270.09;5014320;28;20438;-52
2023/08/06 11:03:39;;;;;;;2.75;1.92;;;;;;;20.19;57.40;100271.56;5013422;28;20421;-53
2023/08/06 11:06:08;;;;;;;3.47;2.03;;;;;;;20.19;57.18;100271.56;5011515;28;20050;-51
2023/08/06 11:08:37;;;;;;;2.67;1.60;;;;;;;20.21;57.40;100268.88;5013582;28;20049;-52
2023/08/06 11:11:13;;;;;;;3.35;1.88;;;;;;;20.08;56.32;100273.75;5012256;28;20049;-52
2023/08/06 11:13:41;;;;;;;3.85;1.52;;;;;;;19.96;57.21;100278.53;5014697;28;20057;-51
2023/08/06 11:16:08;;;;;;;3.22;1.73;;;;;;;19.81;57.19;100279.13;5014837;28;20046;-52
2023/08/06 11:18:36;;;;;;;2.50;1.85;;;;;;;19.71;57.50;100276.88;5009754;28;20045;-52
2023/08/06 11:21:03;;;;;;;3.20;2.25;;;;;;;19.68;57.75;100276.97;5015921;28;20080;-53
2023/08/06 11:23:29;;;;;;;3.70;1.50;;;;;;;19.73;58.22;100280.28;5016487;28;20042;-51
2023/08/06 11:25:57;;;;;;;3.83;1.38;;;;;;;19.83;58.50;100285.19;5015664;28;20789;-51
2023/08/06 11:28:24;;;;;;;2.70;1.85;;;;;;;19.98;58.80;100278.50;5018076;28;20046;-54
2023/08/06 11:30:52;;;;;;;2.08;1.23;;;;;;;20.09;58.63;100283.38;5011535;28;20050;-53
2023/08/06 11:33:22;;;;;;;3.88;1.70;;;;;;;20.22;58.78;100287.22;5020462;28;20107;-50
2023/08/06 11:35:49;;;;;;;2.67;1.73;;;;;;;20.34;58.27;100290.28;5013816;28;20049;-53
2023/08/06 11:38:16;;;;;;;2.88;1.65;;;;;;;20.41;58.19;100291.75;5014891;28;20050;-51